createdAt,value
2023-03-04T00:09:13.768Z,47.53
2023-03-04T00:19:16.064Z,47.57
2023-03-04T00:29:18.125Z,47.00
2023-03-04T00:39:20.169Z,47.02
2023-03-04T00:49:22.550Z,48.09
2023-03-04T00:59:24.732Z,48.42
2023-03-04T01:09:26.838Z,48.27
2023-03-04T01:19:29.773Z,47.90
2023-03-04T01:29:32.035Z,49.59
2023-03-04T01:39:34.107Z,47.51
2023-03-04T01:49:36.241Z,48.38
2023-03-04T01:59:38.858Z,47.40
2023-03-04T02:09:41.276Z,50.14
2023-03-04T02:19:51.421Z,50.41
2023-03-04T02:29:53.543Z,49.95
2023-03-04T02:39:55.759Z,47.79
2023-03-04T02:49:57.954Z,50.27
2023-03-04T03:00:00.142Z,49.81
2023-03-04T03:10:04.161Z,47.65
2023-03-04T03:20:07.565Z,47.93
2023-03-04T03:30:13.401Z,49.75
2023-03-04T03:40:16.191Z,49.40
2023-03-04T03:50:19.115Z,48.22
2023-03-04T04:00:22.222Z,50.61
2023-03-04T04:10:25.285Z,49.63
2023-03-04T04:20:27.458Z,48.47
2023-03-04T04:30:29.589Z,50.73
2023-03-04T04:40:31.975Z,47.87
2023-03-04T04:50:34.151Z,50.47
2023-03-04T05:00:36.379Z,49.13
2023-03-04T05:10:38.753Z,51.94
2023-03-04T05:20:40.817Z,52.55
2023-03-04T05:30:44.084Z,50.43
2023-03-04T05:40:46.992Z,50.38
2023-03-04T05:50:56.472Z,49.96
2023-03-04T06:01:00.840Z,49.79
2023-03-04T06:11:04.845Z,50.75
2023-03-04T06:21:06.990Z,50.49
2023-03-04T06:31:09.126Z,52.07
2023-03-04T06:41:18.798Z,49.45
2023-03-04T06:51:21.383Z,49.19
2023-03-04T07:01:25.958Z,50.95
2023-03-04T07:11:28.047Z,51.49
2023-03-04T07:21:30.310Z,52.90
2023-03-04T07:31:34.341Z,56.43
2023-03-04T07:41:37.247Z,56.08
2023-03-04T07:51:40.029Z,55.23
2023-03-04T08:01:44.045Z,54.65
2023-03-04T08:11:46.753Z,54.82
2023-03-04T08:21:48.841Z,55.05
2023-03-04T08:31:52.449Z,54.85
2023-03-04T08:41:54.830Z,54.86
2023-03-04T08:51:57.073Z,52.27
2023-03-04T09:01:59.413Z,52.60
2023-03-04T09:12:01.930Z,55.05
2023-03-04T09:22:04.365Z,53.26
2023-03-04T09:32:06.740Z,56.56
2023-03-04T09:42:11.932Z,57.49
2023-03-04T09:52:27.203Z,59.92
2023-03-04T10:02:48.204Z,61.08
2023-03-04T10:12:51.213Z,59.18
2023-03-04T10:23:01.142Z,57.61
2023-03-04T10:33:11.902Z,56.89
2023-03-04T10:43:21.635Z,56.89
2023-03-04T10:53:41.152Z,61.33
2023-03-04T11:03:47.337Z,60.70
2023-03-04T11:13:57.231Z,59.62
2023-03-04T11:24:02.294Z,59.37
2023-03-04T11:34:26.200Z,60.10
2023-03-04T11:44:29.408Z,58.68
2023-03-04T11:54:48.128Z,59.31
2023-03-04T12:05:11.258Z,59.61
2023-03-04T12:15:19.589Z,58.94
2023-03-04T12:25:34.685Z,59.15
2023-03-04T12:36:02.277Z,62.41
2023-03-04T12:46:15.192Z,64.89
2023-03-04T12:56:31.005Z,65.29
2023-03-04T13:06:54.618Z,64.16
2023-03-04T13:17:02.391Z,61.38
2023-03-04T13:27:42.132Z,62.61
2023-03-04T13:37:57.960Z,62.49
2023-03-04T13:48:00.624Z,64.65
2023-03-04T13:58:14.952Z,58.84
2023-03-04T14:08:18.986Z,59.16
2023-03-04T14:18:21.299Z,57.27
2023-03-04T14:28:23.404Z,56.65
2023-03-04T14:38:32.262Z,57.19
2023-03-04T14:48:35.630Z,57.32
2023-03-04T14:58:39.738Z,57.46
2023-03-04T15:08:42.325Z,56.44
2023-03-04T15:19:29.291Z,54.81
2023-03-04T15:29:31.567Z,53.10
2023-03-04T15:39:33.814Z,51.61
2023-03-04T15:49:36.162Z,51.52
2023-03-04T15:59:38.546Z,51.83
2023-03-04T16:09:40.651Z,49.60
2023-03-04T16:19:43.067Z,50.22
2023-03-04T16:29:45.266Z,49.74
2023-03-04T16:39:49.102Z,49.33
2023-03-04T16:49:51.268Z,49.03
2023-03-04T16:59:54.911Z,48.57
2023-03-04T17:09:57.033Z,47.25
2023-03-04T17:19:59.507Z,47.98
2023-03-04T17:30:06.806Z,45.88
2023-03-04T17:40:14.054Z,49.39
2023-03-04T17:50:16.400Z,46.99
2023-03-04T18:00:20.244Z,47.62
2023-03-04T18:10:22.573Z,47.86
2023-03-04T18:20:24.670Z,47.09
2023-03-04T18:30:27.511Z,47.09
2023-03-04T18:40:29.738Z,47.99
2023-03-04T18:50:31.942Z,48.98
2023-03-04T19:00:34.295Z,47.79
2023-03-04T19:10:36.428Z,47.48
2023-03-04T19:20:41.352Z,47.00
2023-03-04T19:30:43.680Z,46.17
2023-03-04T19:40:46.823Z,45.58
2023-03-04T19:50:49.641Z,46.23
2023-03-04T20:00:54.764Z,46.00
2023-03-04T20:10:57.263Z,45.44
2023-03-04T20:20:59.462Z,46.90
2023-03-04T20:31:20.704Z,45.44
2023-03-04T20:41:24.196Z,46.18
2023-03-04T20:51:26.614Z,47.77
2023-03-04T21:01:31.073Z,46.29
2023-03-04T21:11:40.033Z,46.02
2023-03-04T21:21:43.092Z,47.64
2023-03-04T21:32:26.923Z,48.33
2023-03-04T21:42:29.063Z,48.72
2023-03-04T21:52:31.240Z,48.20
2023-03-04T22:02:34.779Z,47.79
2023-03-04T22:12:36.819Z,45.47
2023-03-04T22:22:39.161Z,43.70
2023-03-04T22:32:44.501Z,44.74
2023-03-04T22:42:47.821Z,43.29
2023-03-04T22:52:50.036Z,42.39
2023-03-04T23:02:52.406Z,41.36
2023-03-04T23:12:54.718Z,43.07
2023-03-04T23:22:56.855Z,41.66
2023-03-04T23:32:58.941Z,42.21
2023-03-04T23:43:01.245Z,44.25
2023-03-04T23:53:03.483Z,43.71
